sensor_id;sensor_type;location;lat;lon;timestamp;P1;durP1;ratioP1;P2;durP2;ratioP2
32533;SDS011;18973;48.580;8.912;2022-11-12T15:49:46;2.33;;;2.15;;
32533;SDS011;18973;48.580;8.912;2022-11-12T15:52:13;4.40;;;3.08;;
32533;SDS011;18973;48.580;8.912;2022-11-12T15:54:39;6.85;;;4.32;;
32533;SDS011;18973;48.580;8.912;2022-11-12T15:57:07;5.50;;;3.15;;
32533;SDS011;18973;48.580;8.912;2022-11-12T15:59:36;6.00;;;4.28;;
32533;SDS011;18973;48.580;8.912;2022-11-12T16:02:02;11.75;;;4.90;;
32533;SDS011;18973;48.580;8.912;2022-11-12T16:04:32;6.82;;;4.97;;
32533;SDS011;18973;48.580;8.912;2022-11-12T16:06:58;7.97;;;5.10;;
32533;SDS011;18973;48.580;8.912;2022-11-12T16:09:24;9.30;;;5.45;;
32533;SDS011;18973;48.580;8.912;2022-11-12T16:11:50;9.82;;;5.97;;
32533;SDS011;18973;48.580;8.912;2022-11-12T16:14:17;8.85;;;7.15;;
32533;SDS011;18973;48.580;8.912;2022-11-12T16:16:43;10.38;;;7.40;;
32533;SDS011;18973;48.580;8.912;2022-11-12T16:19:12;8.38;;;5.75;;
32533;SDS011;18973;48.580;8.912;2022-11-12T16:21:40;6.25;;;4.97;;
32533;SDS011;18973;48.580;8.912;2022-11-12T16:24:06;6.60;;;4.55;;
32533;SDS011;18973;48.580;8.912;2022-11-12T16:26:32;4.25;;;3.80;;
32533;SDS011;18973;48.580;8.912;2022-11-12T16:28:58;5.50;;;3.67;;
32533;SDS011;18973;48.580;8.912;2022-11-12T16:31:25;4.95;;;4.13;;
32533;SDS011;18973;48.580;8.912;2022-11-12T16:33:51;4.07;;;3.22;;
32533;SDS011;18973;48.580;8.912;2022-11-12T16:36:17;3.90;;;3.53;;
32533;SDS011;18973;48.580;8.912;2022-11-12T16:38:43;4.32;;;3.58;;
32533;SDS011;18973;48.580;8.912;2022-11-12T16:41:10;3.78;;;2.75;;
32533;SDS011;18973;48.580;8.912;2022-11-12T16:43:37;4.57;;;3.30;;
32533;SDS011;18973;48.580;8.912;2022-11-12T16:46:46;5.07;;;4.00;;
32533;SDS011;18973;48.580;8.912;2022-11-12T16:48:54;5.05;;;3.10;;
32533;SDS011;18973;48.580;8.912;2022-11-12T16:51:20;4.18;;;3.53;;
32533;SDS011;18973;48.580;8.912;2022-11-12T16:53:47;5.47;;;3.05;;
32533;SDS011;18973;48.580;8.912;2022-11-12T16:56:15;4.72;;;3.25;;
32533;SDS011;18973;48.580;8.912;2022-11-12T16:58:43;3.50;;;3.20;;
32533;SDS011;18973;48.580;8.912;2022-11-12T17:01:11;4.35;;;3.53;;
32533;SDS011;18973;48.580;8.912;2022-11-12T17:03:49;4.88;;;3.30;;
32533;SDS011;18973;48.580;8.912;2022-11-12T17:06:16;6.35;;;4.03;;
32533;SDS011;18973;48.580;8.912;2022-11-12T17:08:42;2.88;;;2.60;;
32533;SDS011;18973;48.580;8.912;2022-11-12T17:11:10;3.75;;;3.42;;
32533;SDS011;18973;48.580;8.912;2022-11-12T17:13:39;3.13;;;2.90;;
32533;SDS011;18973;48.580;8.912;2022-11-12T17:16:05;3.45;;;2.67;;
32533;SDS011;18973;48.580;8.912;2022-11-12T17:18:32;9.38;;;4.85;;
32533;SDS011;18973;48.580;8.912;2022-11-12T17:21:08;6.35;;;4.95;;
32533;SDS011;18973;48.580;8.912;2022-11-12T17:23:39;4.70;;;4.20;;
32533;SDS011;18973;48.580;8.912;2022-11-12T17:26:06;4.90;;;3.50;;
32533;SDS011;18973;48.580;8.912;2022-11-12T17:28:35;6.00;;;4.15;;
32533;SDS011;18973;48.580;8.912;2022-11-12T17:31:02;8.35;;;4.30;;
32533;SDS011;18973;48.580;8.912;2022-11-12T17:33:31;4.47;;;3.83;;
32533;SDS011;18973;48.580;8.912;2022-11-12T17:36:01;5.90;;;4.10;;
32533;SDS011;18973;48.580;8.912;2022-11-12T17:38:28;7.13;;;3.50;;
32533;SDS011;18973;48.580;8.912;2022-11-12T17:40:55;3.92;;;3.20;;
32533;SDS011;18973;48.580;8.912;2022-11-12T17:43:24;5.45;;;4.00;;
32533;SDS011;18973;48.580;8.912;2022-11-12T17:45:50;5.43;;;3.55;;
32533;SDS011;18973;48.580;8.912;2022-11-12T17:48:17;2.67;;;2.10;;
32533;SDS011;18973;48.580;8.912;2022-11-12T17:50:43;4.03;;;2.95;;
32533;SDS011;18973;48.580;8.912;2022-11-12T17:53:09;11.38;;;6.88;;
32533;SDS011;18973;48.580;8.912;2022-11-12T17:55:35;6.90;;;3.95;;
32533;SDS011;18973;48.580;8.912;2022-11-12T17:58:00;5.97;;;4.63;;
32533;SDS011;18973;48.580;8.912;2022-11-12T18:00:26;5.60;;;3.55;;
32533;SDS011;18973;48.580;8.912;2022-11-12T18:02:55;6.10;;;4.32;;
32533;SDS011;18973;48.580;8.912;2022-11-12T18:05:21;7.05;;;4.47;;
32533;SDS011;18973;48.580;8.912;2022-11-12T18:07:47;4.57;;;4.05;;
32533;SDS011;18973;48.580;8.912;2022-11-12T18:10:16;4.70;;;3.75;;
32533;SDS011;18973;48.580;8.912;2022-11-12T18:12:42;6.80;;;4.10;;
32533;SDS011;18973;48.580;8.912;2022-11-12T18:15:08;4.78;;;3.85;;
32533;SDS011;18973;48.580;8.912;2022-11-12T18:17:35;6.00;;;4.95;;
32533;SDS011;18973;48.580;8.912;2022-11-12T18:20:01;7.88;;;5.88;;
32533;SDS011;18973;48.580;8.912;2022-11-12T18:22:27;4.63;;;3.67;;
32533;SDS011;18973;48.580;8.912;2022-11-12T18:24:53;6.07;;;4.65;;
32533;SDS011;18973;48.580;8.912;2022-11-12T18:27:18;7.50;;;4.70;;
32533;SDS011;18973;48.580;8.912;2022-11-12T18:29:44;10.82;;;4.93;;
32533;SDS011;18973;48.580;8.912;2022-11-12T18:32:11;7.53;;;4.80;;
32533;SDS011;18973;48.580;8.912;2022-11-12T18:34:40;4.85;;;3.75;;
32533;SDS011;18973;48.580;8.912;2022-11-12T18:37:09;4.90;;;4.43;;
32533;SDS011;18973;48.580;8.912;2022-11-12T18:39:35;4.30;;;3.33;;
32533;SDS011;18973;48.580;8.912;2022-11-12T18:42:01;8.88;;;4.15;;
32533;SDS011;18973;48.580;8.912;2022-11-12T18:44:27;8.00;;;4.20;;
32533;SDS011;18973;48.580;8.912;2022-11-12T18:46:53;6.93;;;3.60;;
32533;SDS011;18973;48.580;8.912;2022-11-12T18:49:19;7.97;;;4.78;;
32533;SDS011;18973;48.580;8.912;2022-11-12T18:51:44;8.65;;;6.68;;
32533;SDS011;18973;48.580;8.912;2022-11-12T18:54:10;9.75;;;5.95;;
32533;SDS011;18973;48.580;8.912;2022-11-12T18:56:36;7.95;;;6.03;;
32533;SDS011;18973;48.580;8.912;2022-11-12T18:59:02;8.18;;;5.88;;
32533;SDS011;18973;48.580;8.912;2022-11-12T19:01:29;6.32;;;5.65;;
32533;SDS011;18973;48.580;8.912;2022-11-12T19:03:55;6.10;;;5.50;;
32533;SDS011;18973;48.580;8.912;2022-11-12T19:06:21;5.97;;;4.50;;
32533;SDS011;18973;48.580;8.912;2022-11-12T19:08:48;6.85;;;5.13;;
32533;SDS011;18973;48.580;8.912;2022-11-12T19:11:15;9.45;;;5.53;;
32533;SDS011;18973;48.580;8.912;2022-11-12T19:13:43;6.90;;;5.68;;
32533;SDS011;18973;48.580;8.912;2022-11-12T19:16:13;5.57;;;4.95;;
32533;SDS011;18973;48.580;8.912;2022-11-12T19:18:41;8.77;;;5.30;;
32533;SDS011;18973;48.580;8.912;2022-11-12T19:21:18;9.80;;;6.53;;
32533;SDS011;18973;48.580;8.912;2022-11-12T19:23:45;8.80;;;5.80;;
32533;SDS011;18973;48.580;8.912;2022-11-12T19:26:12;7.63;;;5.53;;
32533;SDS011;18973;48.580;8.912;2022-11-12T19:28:39;8.88;;;6.05;;
32533;SDS011;18973;48.580;8.912;2022-11-12T19:31:15;7.30;;;5.18;;
32533;SDS011;18973;48.580;8.912;2022-11-12T19:33:45;7.95;;;4.88;;
32533;SDS011;18973;48.580;8.912;2022-11-12T19:36:12;10.25;;;5.80;;
32533;SDS011;18973;48.580;8.912;2022-11-12T19:38:52;6.53;;;4.85;;
32533;SDS011;18973;48.580;8.912;2022-11-12T19:41:22;5.07;;;4.50;;
32533;SDS011;18973;48.580;8.912;2022-11-12T19:43:48;6.05;;;5.25;;
32533;SDS011;18973;48.580;8.912;2022-11-12T19:46:14;9.52;;;7.60;;
32533;SDS011;18973;48.580;8.912;2022-11-12T19:48:40;14.68;;;8.93;;
32533;SDS011;18973;48.580;8.912;2022-11-12T19:51:07;8.95;;;6.70;;
32533;SDS011;18973;48.580;8.912;2022-11-12T19:53:34;14.93;;;7.22;;
32533;SDS011;18973;48.580;8.912;2022-11-12T19:56:03;15.55;;;7.72;;
32533;SDS011;18973;48.580;8.912;2022-11-12T19:58:30;10.50;;;7.53;;
32533;SDS011;18973;48.580;8.912;2022-11-12T20:01:06;9.07;;;7.50;;
32533;SDS011;18973;48.580;8.912;2022-11-12T20:03:34;12.88;;;7.63;;
32533;SDS011;18973;48.580;8.912;2022-11-12T20:06:01;11.68;;;7.50;;
32533;SDS011;18973;48.580;8.912;2022-11-12T20:08:31;12.20;;;7.97;;
32533;SDS011;18973;48.580;8.912;2022-11-12T20:10:57;10.57;;;8.30;;
32533;SDS011;18973;48.580;8.912;2022-11-12T20:13:24;11.30;;;7.90;;
32533;SDS011;18973;48.580;8.912;2022-11-12T20:15:50;15.40;;;8.13;;
32533;SDS011;18973;48.580;8.912;2022-11-12T20:18:16;14.18;;;8.23;;
32533;SDS011;18973;48.580;8.912;2022-11-12T20:20:46;10.20;;;6.30;;
32533;SDS011;18973;48.580;8.912;2022-11-12T20:23:13;7.30;;;5.75;;
32533;SDS011;18973;48.580;8.912;2022-11-12T20:25:39;16.00;;;5.53;;
32533;SDS011;18973;48.580;8.912;2022-11-12T20:28:05;12.65;;;6.40;;
32533;SDS011;18973;48.580;8.912;2022-11-12T20:30:31;8.23;;;5.40;;
32533;SDS011;18973;48.580;8.912;2022-11-12T20:32:57;10.23;;;6.00;;
32533;SDS011;18973;48.580;8.912;2022-11-12T20:35:22;9.32;;;6.90;;
32533;SDS011;18973;48.580;8.912;2022-11-12T20:37:48;7.97;;;5.65;;
32533;SDS011;18973;48.580;8.912;2022-11-12T20:40:14;13.00;;;5.85;;
32533;SDS011;18973;48.580;8.912;2022-11-12T20:42:41;8.63;;;6.15;;
32533;SDS011;18973;48.580;8.912;2022-11-12T20:45:07;9.27;;;5.63;;
32533;SDS011;18973;48.580;8.912;2022-11-12T20:47:33;8.68;;;4.78;;
32533;SDS011;18973;48.580;8.912;2022-11-12T20:49:59;6.35;;;5.15;;
32533;SDS011;18973;48.580;8.912;2022-11-12T20:52:25;4.90;;;4.18;;
32533;SDS011;18973;48.580;8.912;2022-11-12T20:54:50;7.57;;;4.32;;
32533;SDS011;18973;48.580;8.912;2022-11-12T20:57:16;4.50;;;3.67;;
32533;SDS011;18973;48.580;8.912;2022-11-12T20:59:42;6.20;;;5.28;;
32533;SDS011;18973;48.580;8.912;2022-11-12T21:02:08;7.68;;;5.53;;
32533;SDS011;18973;48.580;8.912;2022-11-12T21:04:34;5.07;;;4.57;;
32533;SDS011;18973;48.580;8.912;2022-11-12T21:07:00;6.07;;;4.47;;
32533;SDS011;18973;48.580;8.912;2022-11-12T21:09:25;7.57;;;5.47;;
32533;SDS011;18973;48.580;8.912;2022-11-12T21:11:51;7.30;;;5.65;;
32533;SDS011;18973;48.580;8.912;2022-11-12T21:14:17;8.13;;;5.47;;
32533;SDS011;18973;48.580;8.912;2022-11-12T21:16:43;7.10;;;5.60;;
32533;SDS011;18973;48.580;8.912;2022-11-12T21:19:09;8.68;;;6.13;;
32533;SDS011;18973;48.580;8.912;2022-11-12T21:21:34;10.23;;;5.60;;
32533;SDS011;18973;48.580;8.912;2022-11-12T21:24:00;6.85;;;5.28;;
32533;SDS011;18973;48.580;8.912;2022-11-12T21:26:26;9.23;;;6.53;;
32533;SDS011;18973;48.580;8.912;2022-11-12T21:28:52;9.60;;;6.13;;
32533;SDS011;18973;48.580;8.912;2022-11-12T21:31:22;8.50;;;6.57;;
32533;SDS011;18973;48.580;8.912;2022-11-12T21:33:56;6.78;;;5.28;;
32533;SDS011;18973;48.580;8.912;2022-11-12T21:36:28;10.23;;;4.65;;
32533;SDS011;18973;48.580;8.912;2022-11-12T21:38:55;7.00;;;4.72;;
32533;SDS011;18973;48.580;8.912;2022-11-12T21:41:21;5.25;;;4.75;;
32533;SDS011;18973;48.580;8.912;2022-11-12T21:43:52;5.60;;;4.95;;
32533;SDS011;18973;48.580;8.912;2022-11-12T21:46:22;10.15;;;5.18;;
32533;SDS011;18973;48.580;8.912;2022-11-12T21:48:50;8.75;;;5.55;;
32533;SDS011;18973;48.580;8.912;2022-11-12T21:51:18;9.43;;;6.13;;
32533;SDS011;18973;48.580;8.912;2022-11-12T21:53:46;8.35;;;5.43;;
32533;SDS011;18973;48.580;8.912;2022-11-12T21:56:13;6.82;;;5.13;;
32533;SDS011;18973;48.580;8.912;2022-11-12T21:58:42;5.55;;;5.13;;
32533;SDS011;18973;48.580;8.912;2022-11-12T22:01:09;9.43;;;6.43;;
32533;SDS011;18973;48.580;8.912;2022-11-12T22:03:37;6.72;;;5.30;;
32533;SDS011;18973;48.580;8.912;2022-11-12T22:06:04;5.82;;;5.32;;
32533;SDS011;18973;48.580;8.912;2022-11-12T22:08:31;7.45;;;4.95;;
32533;SDS011;18973;48.580;8.912;2022-11-12T22:11:00;10.43;;;6.55;;
32533;SDS011;18973;48.580;8.912;2022-11-12T22:13:28;8.13;;;5.93;;
32533;SDS011;18973;48.580;8.912;2022-11-12T22:15:55;7.40;;;5.22;;
32533;SDS011;18973;48.580;8.912;2022-11-12T22:18:21;6.05;;;4.43;;
32533;SDS011;18973;48.580;8.912;2022-11-12T22:20:54;7.70;;;4.95;;
32533;SDS011;18973;48.580;8.912;2022-11-12T22:23:21;6.82;;;5.20;;
32533;SDS011;18973;48.580;8.912;2022-11-12T22:25:46;8.30;;;5.85;;
32533;SDS011;18973;48.580;8.912;2022-11-12T22:28:14;8.93;;;6.28;;
32533;SDS011;18973;48.580;8.912;2022-11-12T22:30:40;8.30;;;5.22;;
32533;SDS011;18973;48.580;8.912;2022-11-12T22:33:06;5.35;;;4.70;;
32533;SDS011;18973;48.580;8.912;2022-11-12T22:35:32;5.13;;;4.45;;
32533;SDS011;18973;48.580;8.912;2022-11-12T22:37:58;4.97;;;4.47;;
32533;SDS011;18973;48.580;8.912;2022-11-12T22:40:23;4.45;;;3.80;;
32533;SDS011;18973;48.580;8.912;2022-11-12T22:42:49;6.63;;;3.50;;
32533;SDS011;18973;48.580;8.912;2022-11-12T22:45:15;5.40;;;4.35;;
32533;SDS011;18973;48.580;8.912;2022-11-12T22:47:42;3.90;;;3.60;;
32533;SDS011;18973;48.580;8.912;2022-11-12T22:50:07;4.60;;;3.30;;
32533;SDS011;18973;48.580;8.912;2022-11-12T22:52:34;5.55;;;4.38;;
32533;SDS011;18973;48.580;8.912;2022-11-12T22:55:02;4.20;;;3.72;;
32533;SDS011;18973;48.580;8.912;2022-11-12T22:57:28;4.45;;;3.97;;
32533;SDS011;18973;48.580;8.912;2022-11-12T22:59:54;9.93;;;4.70;;
32533;SDS011;18973;48.580;8.912;2022-11-12T23:02:21;4.55;;;3.50;;
32533;SDS011;18973;48.580;8.912;2022-11-12T23:04:47;6.30;;;4.68;;
32533;SDS011;18973;48.580;8.912;2022-11-12T23:07:12;5.07;;;4.30;;
32533;SDS011;18973;48.580;8.912;2022-11-12T23:09:38;4.78;;;4.38;;
32533;SDS011;18973;48.580;8.912;2022-11-12T23:12:04;6.32;;;4.55;;
32533;SDS011;18973;48.580;8.912;2022-11-12T23:14:29;6.13;;;4.20;;
32533;SDS011;18973;48.580;8.912;2022-11-12T23:17:01;6.97;;;5.28;;
32533;SDS011;18973;48.580;8.912;2022-11-12T23:19:27;6.15;;;4.40;;
32533;SDS011;18973;48.580;8.912;2022-11-12T23:21:53;6.57;;;4.25;;
32533;SDS011;18973;48.580;8.912;2022-11-12T23:24:19;5.10;;;3.78;;
32533;SDS011;18973;48.580;8.912;2022-11-12T23:26:44;8.75;;;5.53;;
32533;SDS011;18973;48.580;8.912;2022-11-12T23:29:10;5.50;;;4.63;;
32533;SDS011;18973;48.580;8.912;2022-11-12T23:31:36;7.70;;;5.10;;
32533;SDS011;18973;48.580;8.912;2022-11-12T23:34:02;5.50;;;5.00;;
32533;SDS011;18973;48.580;8.912;2022-11-12T23:36:29;5.15;;;4.50;;
32533;SDS011;18973;48.580;8.912;2022-11-12T23:38:55;7.07;;;4.45;;
32533;SDS011;18973;48.580;8.912;2022-11-12T23:41:22;7.53;;;4.72;;
32533;SDS011;18973;48.580;8.912;2022-11-12T23:43:53;5.53;;;4.15;;
32533;SDS011;18973;48.580;8.912;2022-11-12T23:46:20;7.20;;;4.43;;
32533;SDS011;18973;48.580;8.912;2022-11-12T23:48:46;4.68;;;3.90;;
32533;SDS011;18973;48.580;8.912;2022-11-12T23:51:13;5.40;;;4.07;;
32533;SDS011;18973;48.580;8.912;2022-11-12T23:53:39;9.95;;;4.82;;
32533;SDS011;18973;48.580;8.912;2022-11-12T23:56:06;6.97;;;5.05;;
32533;SDS011;18973;48.580;8.912;2022-11-12T23:58:33;6.00;;;5.35;;
